Time;durP1;ratioP1;P1;durP2;ratioP2;P2;SDS_P1;SDS_P2;PMS_P1;PMS_P2;Temp;Humidity;BMP_temperature;BMP_pressure;BME280_temperature;BME280_humidity;BME280_pressure;Samples;Min_cycle;Max_cycle;Signal;HPM_P1;HPM_P2
2022/01/22 00:02:30;;;;;;;20.08;16.00;;;;;;;2.60;100.00;103510.47;5251502;28;20031;-60
2022/01/22 00:05:00;;;;;;;15.13;13.73;;;;;;;2.60;100.00;103504.31;5251320;28;20092;-58
2022/01/22 00:07:31;;;;;;;14.85;13.77;;;;;;;2.59;100.00;103498.13;5251149;28;20032;-60
2022/01/22 00:10:07;;;;;;;21.92;17.55;;;;;;;2.64;100.00;103503.88;5251632;28;20040;-58
2022/01/22 00:15:10;;;;;;;22.50;17.40;;;;;;;2.55;100.00;103478.06;5269307;28;20032;-57
2022/01/22 00:17:41;;;;;;;15.52;14.07;;;;;;;2.60;100.00;103486.44;5251091;28;20032;-59
2022/01/22 00:20:13;;;;;;;17.65;16.20;;;;;;;2.64;100.00;103493.19;5251216;28;20080;-57
2022/01/22 00:22:44;;;;;;;15.48;14.18;;;;;;;2.65;100.00;103497.56;5251144;28;20209;-58
2022/01/22 00:25:16;;;;;;;15.63;14.30;;;;;;;2.70;100.00;103497.13;5250874;28;20114;-60
2022/01/22 00:27:49;;;;;;;15.30;14.05;;;;;;;2.71;100.00;103497.00;5251071;28;20097;-57
2022/01/22 00:30:22;;;;;;;15.90;14.73;;;;;;;2.76;100.00;103482.41;5250632;28;20031;-58
2022/01/22 00:32:53;;;;;;;20.88;15.40;;;;;;;2.77;100.00;103484.09;5250819;28;20054;-59
2022/01/22 00:35:24;;;;;;;17.25;13.30;;;;;;;2.67;100.00;103462.75;5250826;28;20028;-55
2022/01/22 00:37:55;;;;;;;16.88;14.63;;;;;;;2.74;100.00;103471.03;5250818;28;20385;-60
2022/01/22 00:40:26;;;;;;;20.77;15.23;;;;;;;2.81;100.00;103481.00;5250809;28;20377;-57
2022/01/22 00:42:56;;;;;;;19.48;15.50;;;;;;;2.86;100.00;103477.94;5250440;28;20043;-58
2022/01/22 00:45:27;;;;;;;14.68;13.68;;;;;;;2.87;100.00;103471.59;5250273;28;20036;-60
2022/01/22 00:47:57;;;;;;;17.10;15.57;;;;;;;2.90;100.00;103468.63;5250459;28;20032;-60
2022/01/22 00:50:28;;;;;;;15.23;14.07;;;;;;;2.87;100.00;103475.13;5250223;28;20396;-57
2022/01/22 00:52:58;;;;;;;17.45;15.93;;;;;;;2.88;100.00;103470.63;5268653;28;20067;-58
2022/01/22 00:55:29;;;;;;;19.85;14.85;;;;;;;2.91;100.00;103480.97;5250269;28;20043;-58
2022/01/22 00:58:00;;;;;;;15.13;14.02;;;;;;;2.92;100.00;103480.84;5250786;28;20503;-58
2022/01/22 01:00:31;;;;;;;15.68;13.82;;;;;;;2.88;100.00;103476.81;5249743;28;20032;-58
2022/01/22 01:03:02;;;;;;;21.67;14.10;;;;;;;2.90;100.00;103474.81;5250251;28;20028;-57
2022/01/22 01:05:32;;;;;;;15.65;14.43;;;;;;;2.94;100.00;103475.38;5268213;28;20399;-58
2022/01/22 01:08:04;;;;;;;14.85;13.45;;;;;;;2.88;100.00;103470.63;5250103;28;20036;-56
2022/01/22 01:10:34;;;;;;;20.67;15.57;;;;;;;2.95;100.00;103471.72;5250063;28;20028;-61
2022/01/22 01:13:05;;;;;;;14.57;13.57;;;;;;;2.97;100.00;103475.09;5250133;28;20083;-60
2022/01/22 01:34:43;;;;;;;15.57;13.65;;;;;;;2.96;100.00;103476.06;5267678;28;20032;-59
2022/01/22 01:37:16;;;;;;;18.02;16.58;;;;;;;2.98;100.00;103474.94;5249733;28;20089;-59
2022/01/22 01:39:49;;;;;;;22.67;14.02;;;;;;;3.00;100.00;103480.16;5249693;28;20042;-59
2022/01/22 01:42:35;;;;;;;20.95;15.43;;;;;;;3.02;100.00;103479.03;5249652;28;20114;-56
2022/01/22 01:45:07;;;;;;;15.90;14.18;;;;;;;2.94;100.00;103467.34;5249619;28;20505;-59
2022/01/22 01:47:39;;;;;;;14.43;13.00;;;;;;;3.11;100.00;103493.34;5249619;28;20043;-59
2022/01/22 01:50:10;;;;;;;16.52;14.43;;;;;;;3.05;100.00;103489.41;5249509;28;20058;-56
2022/01/22 01:53:31;;;;;;;14.88;13.70;;;;;;;3.10;100.00;103491.66;5249703;28;20063;-56
2022/01/22 01:56:03;;;;;;;15.63;13.05;;;;;;;3.13;100.00;103491.38;5259246;28;20035;-58
2022/01/22 01:58:33;;;;;;;14.43;13.43;;;;;;;3.14;100.00;103487.72;5249634;28;20038;-59
2022/01/22 02:01:06;;;;;;;15.25;14.13;;;;;;;3.14;100.00;103490.41;5249375;28;20478;-60
2022/01/22 02:03:37;;;;;;;15.30;13.93;;;;;;;3.10;100.00;103485.47;5249118;28;20043;-58
2022/01/22 02:06:07;;;;;;;16.60;14.85;;;;;;;3.11;100.00;103488.00;5249134;28;20032;-57
2022/01/22 02:08:39;;;;;;;16.38;15.15;;;;;;;3.14;100.00;103482.38;5249336;28;20491;-60
2022/01/22 02:11:11;;;;;;;18.02;16.65;;;;;;;3.15;100.00;103496.59;5249132;28;20111;-55
2022/01/22 02:14:00;;;;;;;15.82;14.52;;;;;;;3.05;100.00;103473.41;5252945;28;20048;-56
2022/01/22 02:25:03;;;;;;;16.65;15.05;;;;;;;3.10;100.00;103477.47;5271508;28;20130;-57
2022/01/22 02:27:34;;;;;;;16.48;15.18;;;;;;;3.13;100.00;103475.38;5256324;22;20555;-58
2022/01/22 02:30:05;;;;;;;14.27;13.35;;;;;;;3.10;100.00;103467.63;5229960;28;20029;-58
2022/01/22 02:35:26;;;;;;;22.00;17.95;;;;;;;3.16;100.00;103479.59;5236641;28;20040;-60
2022/01/22 02:38:06;;;;;;;16.55;15.20;;;;;;;3.13;100.00;103469.19;5234890;28;20033;-59
2022/01/22 02:40:44;;;;;;;18.55;17.08;;;;;;;3.10;100.00;103459.63;5234873;28;20504;-59
2022/01/22 02:43:16;;;;;;;21.08;16.95;;;;;;;3.19;100.00;103469.44;5234155;28;20052;-59
2022/01/22 02:45:47;;;;;;;18.27;16.65;;;;;;;3.20;100.00;103470.28;5233814;28;20032;-58
2022/01/22 02:48:18;;;;;;;19.60;17.50;;;;;;;3.21;100.00;103471.97;5234287;28;20033;-59
2022/01/22 02:50:49;;;;;;;19.02;17.33;;;;;;;3.20;100.00;103473.78;5233309;28;20171;-58
2022/01/22 02:53:19;;;;;;;20.95;17.80;;;;;;;3.22;100.00;103473.66;5233884;28;20514;-57
2022/01/22 02:55:50;;;;;;;18.63;17.00;;;;;;;3.21;100.00;103470.13;5233348;28;20039;-56
2022/01/22 02:58:21;;;;;;;19.80;17.80;;;;;;;3.17;100.00;103460.75;5233171;28;20515;-58
2022/01/22 03:00:51;;;;;;;18.98;16.88;;;;;;;3.23;100.00;103472.66;5232890;28;20091;-59
2022/01/22 03:03:22;;;;;;;19.90;17.80;;;;;;;3.22;100.00;103469.16;5227882;28;20110;-58
2022/01/22 03:05:52;;;;;;;21.08;18.80;;;;;;;3.24;100.00;103477.00;5227882;28;20028;-57
2022/01/22 03:08:27;;;;;;;19.45;17.92;;;;;;;3.24;100.00;103467.19;5228068;28;20033;-57
2022/01/22 03:11:00;;;;;;;20.13;18.15;;;;;;;3.24;100.00;103475.19;5228054;28;20041;-54
2022/01/22 03:16:32;;;;;;;18.98;17.45;;;;;;;3.22;100.00;103468.31;5229289;28;20040;-57
2022/01/22 03:19:12;;;;;;;20.90;19.33;;;;;;;3.22;100.00;103470.97;5227885;28;20496;-55
2022/01/22 03:21:57;;;;;;;18.63;17.10;;;;;;;3.24;100.00;103471.69;5227293;28;20029;-55
2022/01/22 03:27:23;;;;;;;20.23;18.48;;;;;;;3.23;100.00;103488.69;5228804;28;20134;-58
2022/01/22 03:29:54;;;;;;;20.40;18.23;;;;;;;3.23;100.00;103492.19;5227248;28;20043;-57
2022/01/22 03:32:30;;;;;;;20.48;18.67;;;;;;;3.25;100.00;103490.22;5226877;28;20378;-56
2022/01/22 03:37:52;;;;;;;22.10;19.77;;;;;;;3.12;100.00;103463.00;5228566;28;20037;-59
2022/01/22 03:40:25;;;;;;;20.27;18.52;;;;;;;3.24;100.00;103483.19;5227194;28;20353;-55
2022/01/22 03:42:56;;;;;;;22.38;20.63;;;;;;;3.20;100.00;103468.44;5226663;28;20032;-56
2022/01/22 03:45:27;;;;;;;22.90;20.60;;;;;;;3.24;100.00;103483.19;5226757;28;20033;-55
2022/01/22 03:47:57;;;;;;;22.83;20.98;;;;;;;3.24;100.00;103480.53;5226944;28;20058;-55
2022/01/22 03:50:28;;;;;;;21.98;20.35;;;;;;;3.25;100.00;103490.22;5226737;28;20033;-58
2022/01/22 03:52:58;;;;;;;20.77;19.05;;;;;;;3.23;100.00;103473.50;5226321;28;20183;-57
2022/01/22 03:58:08;;;;;;;24.90;22.45;;;;;;;3.24;100.00;103477.84;5228238;28;20041;-58
2022/01/22 04:00:38;;;;;;;22.95;21.00;;;;;;;3.26;100.00;103481.22;5226861;28;20156;-56
2022/01/22 04:03:27;;;;;;;25.70;22.38;;;;;;;3.25;100.00;103474.19;5226336;28;20036;-55
2022/01/22 04:06:22;;;;;;;23.63;21.73;;;;;;;3.16;100.00;103467.06;5226800;28;20028;-55
2022/01/22 04:08:50;;;;;;;23.20;21.08;;;;;;;3.22;100.00;103474.47;5227393;28;20053;-59
2022/01/22 04:11:21;;;;;;;23.40;21.10;;;;;;;3.24;100.00;103477.00;5226218;28;20040;-57
2022/01/22 04:13:58;;;;;;;22.13;20.02;;;;;;;3.12;100.00;103451.47;5226014;28;20401;-56
2022/01/22 04:25:15;;;;;;;26.27;22.40;;;;;;;3.25;100.00;103468.03;5227631;28;20044;-55
2022/01/22 04:27:48;;;;;;;23.02;21.05;;;;;;;3.25;100.00;103463.53;5226095;28;20497;-58
2022/01/22 04:30:18;;;;;;;24.20;22.20;;;;;;;3.20;100.00;103460.44;5225847;28;20041;-56
2022/01/22 04:32:49;;;;;;;22.63;20.45;;;;;;;3.24;100.00;103467.19;5225879;28;20513;-57
2022/01/22 04:35:22;;;;;;;22.05;20.10;;;;;;;3.23;100.00;103462.81;5224926;28;20037;-55
2022/01/22 04:37:53;;;;;;;23.83;21.45;;;;;;;3.24;100.00;103469.84;5225933;28;20029;-56
2022/01/22 04:40:23;;;;;;;24.98;22.48;;;;;;;3.21;100.00;103464.78;5225793;28;20106;-56
2022/01/22 04:42:55;;;;;;;23.85;21.83;;;;;;;3.24;100.00;103461.84;5225755;28;20577;-55
2022/01/22 04:46:13;;;;;;;23.75;21.85;;;;;;;3.25;100.00;103473.34;5225567;28;20044;-56
2022/01/22 04:57:24;;;;;;;26.50;23.98;;;;;;;3.27;100.00;103466.03;5226792;28;20067;-56
2022/01/22 04:59:54;;;;;;;26.08;23.60;;;;;;;3.10;100.00;103434.75;5225295;28;20068;-55
2022/01/22 05:02:25;;;;;;;28.60;25.83;;;;;;;3.27;100.00;103463.38;5225366;28;20028;-55
2022/01/22 05:04:55;;;;;;;26.50;23.40;;;;;;;3.25;100.00;103455.50;5225011;28;20040;-55
2022/01/22 05:07:26;;;;;;;26.52;24.23;;;;;;;3.27;100.00;103458.03;5225108;28;20068;-55
2022/01/22 05:09:57;;;;;;;28.08;25.73;;;;;;;3.24;100.00;103450.31;5225201;28;20037;-57
2022/01/22 05:12:29;;;;;;;26.77;24.67;;;;;;;3.28;100.00;103457.91;5208544;28;20045;-54
2022/01/22 05:15:00;;;;;;;29.08;26.75;;;;;;;3.28;100.00;103452.56;5225076;28;20055;-55
2022/01/22 05:17:34;;;;;;;25.38;23.45;;;;;;;3.25;100.00;103447.50;5226486;28;20029;-55
2022/01/22 05:23:03;;;;;;;28.80;25.52;;;;;;;3.29;100.00;103450.72;5226449;28;20029;-57
2022/01/22 05:26:31;;;;;;;31.27;28.63;;;;;;;3.27;100.00;103445.53;5224923;28;20409;-56
2022/01/22 05:39:46;;;;;;;34.13;28.63;;;;;;;3.37;100.00;103461.53;5212878;28;20051;-55
2022/01/22 05:42:17;;;;;;;30.55;27.80;;;;;;;3.32;100.00;103455.78;5224668;28;20021;-54
2022/01/22 05:44:47;;;;;;;31.40;28.70;;;;;;;3.38;100.00;103466.75;5224439;28;20137;-54
2022/01/22 05:47:24;;;;;;;31.48;28.33;;;;;;;3.38;100.00;103473.91;5224863;28;20041;-54
2022/01/22 05:49:55;;;;;;;45.72;28.15;;;;;;;3.41;100.00;103470.94;5224700;28;20515;-56
2022/01/22 05:52:55;;;;;;;34.08;30.65;;;;;;;3.38;100.00;103468.56;5224614;28;20033;-54
2022/01/22 06:00:52;;;;;;;32.07;29.20;;;;;;;3.40;100.00;103479.94;5225913;28;20063;-55
2022/01/22 06:03:22;;;;;;;34.47;31.38;;;;;;;3.43;100.00;103481.50;5224222;28;20395;-54
2022/01/22 06:05:53;;;;;;;35.38;31.85;;;;;;;3.46;100.00;103482.03;5224422;28;20154;-55
2022/01/22 06:08:29;;;;;;;43.88;29.80;;;;;;;3.46;100.00;103481.22;5224356;28;20393;-60
2022/01/22 06:11:07;;;;;;;32.53;29.70;;;;;;;3.46;100.00;103482.03;5224615;28;20530;-60
2022/01/22 06:13:44;;;;;;;31.67;28.35;;;;;;;3.45;100.00;103467.00;5223924;28;20492;-54
2022/01/22 06:16:18;;;;;;;33.72;30.10;;;;;;;3.44;100.00;103478.69;5224442;28;20037;-54
2022/01/22 06:18:50;;;;;;;31.98;28.95;;;;;;;3.41;100.00;103464.75;5224392;28;20033;-56
2022/01/22 06:21:20;;;;;;;31.77;28.98;;;;;;;3.49;100.00;103486.22;5224148;28;20033;-58
2022/01/22 06:24:06;;;;;;;35.40;32.45;;;;;;;3.49;100.00;103478.22;5224709;28;20442;-55
2022/01/22 06:26:37;;;;;;;33.95;30.58;;;;;;;3.49;100.00;103480.88;5224142;28;20045;-56
2022/01/22 06:29:08;;;;;;;33.63;30.80;;;;;;;3.26;100.00;103451.00;5224476;28;20040;-55
2022/01/22 06:31:38;;;;;;;39.03;35.17;;;;;;;3.49;100.00;103479.06;5224150;28;20082;-55
2022/01/22 06:34:09;;;;;;;39.88;33.53;;;;;;;3.51;100.00;103484.25;5224005;28;20033;-58
2022/01/22 06:36:39;;;;;;;32.63;29.35;;;;;;;3.52;100.00;103492.13;5224198;28;20467;-55
2022/01/22 06:39:12;;;;;;;37.75;31.67;;;;;;;3.53;100.00;103487.63;5224012;28;20501;-56
2022/01/22 06:41:45;;;;;;;35.13;31.65;;;;;;;3.54;100.00;103486.63;5224308;28;20036;-54
2022/01/22 06:44:21;;;;;;;35.92;32.50;;;;;;;3.55;100.00;103496.34;5223969;28;20033;-57
2022/01/22 06:46:54;;;;;;;33.25;29.77;;;;;;;3.44;100.00;103470.66;5224272;28;20029;-57
2022/01/22 06:49:25;;;;;;;36.95;33.08;;;;;;;3.56;100.00;103495.34;5225287;28;20028;-55
2022/01/22 06:51:55;;;;;;;33.90;30.33;;;;;;;3.55;100.00;103491.84;5224138;28;20083;-59
2022/01/22 06:54:26;;;;;;;36.42;33.03;;;;;;;3.56;100.00;103492.69;5223991;28;20029;-59
2022/01/22 06:56:56;;;;;;;37.42;33.40;;;;;;;3.50;100.00;103488.75;5224278;28;20390;-59
2022/01/22 06:59:26;;;;;;;35.42;32.00;;;;;;;3.54;100.00;103479.47;5228755;28;20037;-57
2022/01/22 07:01:57;;;;;;;30.92;28.13;;;;;;;3.58;100.00;103496.06;5227549;28;20080;-59
2022/01/22 07:04:29;;;;;;;34.88;31.45;;;;;;;3.58;100.00;103488.88;5227030;28;20035;-59
2022/01/22 07:07:00;;;;;;;31.70;28.88;;;;;;;3.57;100.00;103489.03;5227125;28;20179;-58
2022/01/22 07:09:31;;;;;;;36.78;33.20;;;;;;;3.41;100.00;103459.41;5227767;28;20559;-60
2022/01/22 07:12:03;;;;;;;36.30;32.45;;;;;;;3.59;100.00;103503.94;5227584;28;20040;-60
2022/01/22 07:14:34;;;;;;;35.28;31.75;;;;;;;3.56;100.00;103503.38;5228486;28;20036;-60
2022/01/22 07:17:05;;;;;;;33.30;30.30;;;;;;;3.46;100.00;103487.38;5227949;28;20037;-60
2022/01/22 07:19:41;;;;;;;33.88;30.95;;;;;;;3.57;100.00;103510.41;5228277;28;20031;-59
2022/01/22 07:25:00;;;;;;;34.22;30.83;;;;;;;3.60;100.00;103523.47;5229204;28;20186;-59
2022/01/22 07:27:30;;;;;;;35.70;32.15;;;;;;;3.57;100.00;103515.75;5227143;28;20124;-61
2022/01/22 07:30:01;;;;;;;39.13;35.05;;;;;;;3.61;100.00;103530.50;5227573;28;20036;-59
2022/01/22 07:32:36;;;;;;;34.33;31.20;;;;;;;3.62;100.00;103527.69;5228676;28;20033;-59
2022/01/22 07:35:07;;;;;;;36.30;31.60;;;;;;;3.57;100.00;103521.09;5227362;28;20077;-60
2022/01/22 07:37:38;;;;;;;37.15;33.58;;;;;;;3.64;100.00;103527.53;5227778;28;20036;-59
2022/01/22 07:40:10;;;;;;;33.78;30.75;;;;;;;3.67;100.00;103529.94;5227276;28;20025;-59
2022/01/22 07:42:41;;;;;;;38.20;33.88;;;;;;;3.69;100.00;103533.31;5227257;28;20029;-60
2022/01/22 07:45:12;;;;;;;35.13;31.55;;;;;;;3.71;100.00;103531.31;5227196;28;20112;-60
2022/01/22 07:47:42;;;;;;;36.63;33.22;;;;;;;3.71;100.00;103524.16;5226423;28;20178;-60
2022/01/22 07:50:13;;;;;;;33.20;29.77;;;;;;;3.72;100.00;103530.34;5226300;28;20039;-60
2022/01/22 07:52:43;;;;;;;34.03;30.92;;;;;;;3.78;100.00;103534.25;5229624;28;20029;-60
2022/01/22 07:55:16;;;;;;;34.75;31.15;;;;;;;3.79;100.00;103526.06;5226979;28;20382;-59
2022/01/22 07:57:46;;;;;;;32.67;30.02;;;;;;;3.81;100.00;103540.13;5228123;28;20036;-62
2022/01/22 08:00:17;;;;;;;35.63;32.55;;;;;;;3.82;100.00;103531.13;5228213;28;20036;-62
2022/01/22 08:02:48;;;;;;;36.17;32.95;;;;;;;3.84;100.00;103526.47;5229261;28;20128;-62
2022/01/22 08:05:18;;;;;;;41.80;37.22;;;;;;;3.62;100.00;103489.44;5227262;28;20035;-61
2022/01/22 08:07:49;;;;;;;38.78;35.13;;;;;;;3.88;100.00;103521.69;5228127;28;20032;-61
2022/01/22 08:10:19;;;;;;;36.55;32.72;;;;;;;3.89;100.00;103524.22;5226278;28;20040;-61
2022/01/22 08:12:51;;;;;;;38.58;30.75;;;;;;;3.92;100.00;103517.75;5226754;28;20448;-61
2022/01/22 08:15:40;;;;;;;35.33;32.05;;;;;;;3.92;100.00;103526.59;5226675;28;20106;-62
2022/01/22 08:18:10;;;;;;;34.60;30.98;;;;;;;3.98;100.00;103536.72;5227225;28;20079;-61
2022/01/22 08:20:41;;;;;;;33.25;30.08;;;;;;;3.98;100.00;103536.72;5226405;28;20049;-60
2022/01/22 08:23:11;;;;;;;34.80;31.30;;;;;;;3.99;100.00;103530.38;5226615;28;20507;-61
2022/01/22 08:31:47;;;;;;;34.17;30.67;;;;;;;4.11;100.00;103546.22;5230120;28;20091;-61
2022/01/22 08:36:57;;;;;;;34.00;30.73;;;;;;;4.01;100.00;103520.38;5228092;28;20036;-62
2022/01/22 08:39:27;;;;;;;34.80;31.05;;;;;;;4.02;100.00;103503.34;5210292;28;20044;-62
2022/01/22 08:41:58;;;;;;;35.28;31.92;;;;;;;4.21;100.00;103533.66;5210102;28;20033;-61
2022/01/22 08:44:28;;;;;;;37.55;32.60;;;;;;;4.28;100.00;103540.09;5243285;28;20120;-62
2022/01/22 08:46:59;;;;;;;39.50;32.13;;;;;;;4.33;100.00;103537.81;5210098;28;20033;-62
2022/01/22 08:49:30;;;;;;;36.80;32.67;;;;;;;4.35;100.00;103527.78;5209685;28;20033;-63
2022/01/22 08:52:01;;;;;;;34.47;30.80;;;;;;;4.39;100.00;103526.50;5209653;28;20503;-61
2022/01/22 08:54:32;;;;;;;38.65;33.17;;;;;;;4.46;100.00;103530.28;5209901;28;20040;-62
2022/01/22 08:57:02;;;;;;;35.85;31.70;;;;;;;4.49;100.00;103531.81;5243035;28;20039;-62
2022/01/22 08:59:33;;;;;;;36.00;32.25;;;;;;;4.53;100.00;103539.38;5242943;28;20440;-60
2022/01/22 09:02:05;;;;;;;31.75;28.80;;;;;;;4.58;100.00;103545.13;5209678;28;20029;-62
2022/01/22 09:04:35;;;;;;;37.42;33.55;;;;;;;4.58;100.00;103533.59;5209884;28;20037;-61
2022/01/22 09:07:06;;;;;;;36.67;32.75;;;;;;;4.59;100.00;103535.28;5229260;28;20039;-62
2022/01/22 09:09:37;;;;;;;33.40;30.40;;;;;;;4.55;100.00;103525.84;5212144;28;20076;-62
2022/01/22 09:12:09;;;;;;;33.78;29.95;;;;;;;4.69;100.00;103552.94;5244618;28;20033;-63
2022/01/22 09:14:39;;;;;;;38.13;34.33;;;;;;;4.55;100.00;103518.66;5211387;28;20040;-62
2022/01/22 09:17:10;;;;;;;33.53;30.23;;;;;;;4.76;100.00;103550.50;5211857;28;20032;-61
2022/01/22 09:19:46;;;;;;;35.13;30.75;;;;;;;4.82;100.00;103557.09;5211421;28;20445;-63
2022/01/22 09:22:16;;;;;;;31.33;28.30;;;;;;;4.75;100.00;103546.97;5210387;28;20071;-61
2022/01/22 09:24:46;;;;;;;35.05;31.52;;;;;;;4.82;100.00;103557.94;5210219;28;20127;-62
2022/01/22 09:27:17;;;;;;;32.42;28.90;;;;;;;4.82;100.00;103562.44;5210862;28;20048;-62
2022/01/22 09:29:48;;;;;;;34.60;31.38;;;;;;;4.70;100.00;103546.59;5243641;28;20036;-63
2022/01/22 09:32:19;;;;;;;35.65;32.17;;;;;;;4.84;100.00;103568.50;5210881;28;20041;-61
2022/01/22 09:34:50;;;;;;;34.15;31.25;;;;;;;4.84;100.00;103561.28;5210020;28;20029;-62
2022/01/22 09:37:20;;;;;;;34.67;31.10;;;;;;;4.93;100.00;103578.25;5210295;28;20033;-63
2022/01/22 09:39:51;;;;;;;34.47;31.27;;;;;;;4.95;100.00;103576.28;5228253;28;20473;-62
2022/01/22 09:42:21;;;;;;;35.67;29.83;;;;;;;4.74;100.00;103539.94;5243730;28;20102;-62
2022/01/22 09:44:52;;;;;;;32.25;29.10;;;;;;;5.03;100.00;103581.72;5210576;28;20032;-62
2022/01/22 09:47:23;;;;;;;36.80;33.00;;;;;;;5.03;100.00;103579.03;5243769;28;20032;-62
2022/01/22 09:49:53;;;;;;;32.22;29.23;;;;;;;5.04;100.00;103583.41;5210304;28;20029;-63
2022/01/22 09:52:24;;;;;;;32.72;29.88;;;;;;;5.14;100.00;103592.22;5209929;28;20032;-62
2022/01/22 09:54:54;;;;;;;32.75;29.60;;;;;;;5.18;100.00;103593.59;5209578;28;20040;-63
2022/01/22 09:57:26;;;;;;;36.95;32.72;;;;;;;5.06;100.00;103571.53;5210383;28;20029;-63
2022/01/22 09:59:56;;;;;;;37.42;33.97;;;;;;;5.20;100.00;103596.94;5244344;28;20036;-62
2022/01/22 10:02:27;;;;;;;35.15;31.50;;;;;;;5.19;100.00;103592.59;5211323;28;20040;-62
2022/01/22 10:04:58;;;;;;;35.17;32.20;;;;;;;5.21;100.00;103600.47;5210427;28;20043;-62
2022/01/22 10:07:29;;;;;;;31.02;26.08;;;;;;;5.22;100.00;103600.31;5210807;28;20044;-62
2022/01/22 10:10:07;;;;;;;31.40;28.30;;;;;;;5.25;100.00;103612.56;5243898;28;20401;-62
2022/01/22 10:12:44;;;;;;;31.35;26.80;;;;;;;5.28;100.00;103613.09;5243564;28;20039;-62
2022/01/22 10:15:20;;;;;;;30.60;27.75;;;;;;;5.31;100.00;103609.28;5209410;28;20485;-62
2022/01/22 10:17:56;;;;;;;32.97;29.80;;;;;;;5.33;100.00;103613.47;5227572;28;20040;-63
2022/01/22 10:20:32;;;;;;;32.80;29.30;;;;;;;5.25;100.00;103605.38;5209162;28;20131;-62
2022/01/22 10:23:20;;;;;;;32.30;27.15;;;;;;;5.40;100.00;103619.06;5227323;28;20048;-62
2022/01/22 10:26:00;;;;;;;32.83;29.23;;;;;;;5.41;100.00;103615.41;5209360;28;20033;-62
2022/01/22 10:28:41;;;;;;;;;;;;;;;5.43;100.00;103616.94;5243031;28;20037;-63
2022/01/22 10:31:24;;;;;;;33.33;30.27;;;;;;;5.42;100.00;103614.41;5209074;28;19912;-61
2022/01/22 10:34:10;;;;;;;35.45;28.95;;;;;;;5.43;100.00;103616.09;5211463;28;20060;-62
2022/01/22 10:36:55;;;;;;;28.23;25.58;;;;;;;5.45;100.00;103607.91;5246671;28;20036;-62
2022/01/22 10:39:26;;;;;;;28.95;26.05;;;;;;;5.42;100.00;103591.13;5246573;28;20032;-63
2022/01/22 10:41:56;;;;;;;37.53;29.20;;;;;;;5.56;100.00;103607.63;5213182;28;20037;-62
2022/01/22 10:44:45;;;;;;;31.50;28.67;;;;;;;5.56;100.00;103607.63;5212613;28;20052;-62
2022/01/22 10:47:22;;;;;;;31.08;27.98;;;;;;;5.56;100.00;103604.94;5213044;28;20041;-63
2022/01/22 10:49:53;;;;;;;28.70;26.05;;;;;;;5.13;100.00;103528.09;5213255;28;20493;-62
2022/01/22 10:52:23;;;;;;;31.60;28.35;;;;;;;5.61;100.00;103605.31;5230259;28;20040;-62
2022/01/22 10:55:02;;;;;;;26.30;23.98;;;;;;;5.67;100.00;103607.41;5212278;28;20036;-63
2022/01/22 10:57:32;;;;;;;30.90;28.23;;;;;;;5.64;100.00;103608.53;5246274;28;20033;-63
2022/01/22 11:00:03;;;;;;;32.03;28.83;;;;;;;5.63;100.00;103596.13;5212815;28;20033;-63
2022/01/22 11:02:38;;;;;;;34.97;31.63;;;;;;;5.67;100.00;103613.59;5212429;28;20036;-62
2022/01/22 11:05:09;;;;;;;27.27;24.50;;;;;;;5.52;100.00;103599.06;5212077;28;20454;-63
2022/01/22 11:07:39;;;;;;;28.40;25.50;;;;;;;5.65;100.00;103618.28;5212700;28;20036;-63
2022/01/22 11:10:10;;;;;;;27.75;25.02;;;;;;;5.64;100.00;103613.06;5245595;28;20033;-63
2022/01/22 11:12:42;;;;;;;29.60;26.92;;;;;;;5.55;100.00;103592.53;5245295;28;20040;-63
2022/01/22 11:15:12;;;;;;;32.25;29.00;;;;;;;5.50;100.00;103557.31;5211197;28;20041;-63
2022/01/22 11:17:43;;;;;;;33.08;28.33;;;;;;;5.63;100.00;103590.78;5245771;28;20033;-63
2022/01/22 11:20:14;;;;;;;27.70;25.27;;;;;;;5.63;100.00;103584.56;5245688;28;20047;-63
2022/01/22 11:22:46;;;;;;;30.70;27.52;;;;;;;5.69;100.00;103592.00;5211931;28;20037;-63
2022/01/22 11:25:17;;;;;;;32.75;29.48;;;;;;;5.53;100.00;103568.56;5244863;28;20045;-63
2022/01/22 11:27:49;;;;;;;31.27;28.10;;;;;;;5.71;100.00;103588.16;5244730;28;20485;-63
2022/01/22 11:30:25;;;;;;;29.90;27.35;;;;;;;5.67;100.00;103585.94;5212295;28;20028;-62
2022/01/22 11:33:03;;;;;;;29.15;25.48;;;;;;;5.72;100.00;103589.00;5211701;28;20049;-63
2022/01/22 11:36:06;;;;;;;31.40;28.40;;;;;;;5.45;100.00;103546.25;5211922;28;20034;-63
2022/01/22 11:38:37;;;;;;;28.92;25.73;;;;;;;5.69;100.00;103579.44;5229805;28;20448;-62
2022/01/22 11:41:10;;;;;;;28.63;26.02;;;;;;;5.81;100.00;103587.19;5211166;28;20044;-63
2022/01/22 11:44:17;;;;;;;28.45;25.80;;;;;;;5.76;100.00;103593.06;5244044;28;20045;-63
2022/01/22 11:46:58;;;;;;;28.23;25.50;;;;;;;5.75;100.00;103592.22;5229543;28;20040;-63
2022/01/22 11:49:31;;;;;;;27.85;25.17;;;;;;;5.65;100.00;103578.06;5212361;28;20041;-63
2022/01/22 11:52:08;;;;;;;30.38;27.50;;;;;;;5.76;100.00;103601.09;5211450;28;20059;-63
2022/01/22 11:54:55;;;;;;;29.75;27.08;;;;;;;5.74;100.00;103589.69;5210434;28;20037;-62
2022/01/22 11:57:29;;;;;;;28.90;25.98;;;;;;;5.69;100.00;103576.75;5244206;28;20033;-62
2022/01/22 12:00:25;;;;;;;30.80;27.48;;;;;;;5.74;100.00;103579.81;5210676;28;20404;-63
2022/01/22 12:03:08;;;;;;;27.33;24.67;;;;;;;5.69;100.00;103581.28;5210902;28;20063;-63
2022/01/22 12:05:54;;;;;;;27.25;24.88;;;;;;;5.70;100.00;103569.56;5210471;28;20063;-63
2022/01/22 12:08:24;;;;;;;33.17;29.38;;;;;;;5.73;100.00;103563.88;5211422;28;20103;-63
2022/01/22 12:17:02;;;;;;;34.72;31.38;;;;;;;5.68;100.00;103572.38;5227977;28;20122;-59
2022/01/22 12:19:46;;;;;;;36.10;32.53;;;;;;;5.63;100.00;103573.84;5179177;28;20037;-57
2022/01/22 12:22:35;;;;;;;33.67;30.65;;;;;;;5.61;100.00;103551.72;5209477;28;20041;-58
2022/01/22 12:25:12;;;;;;;34.67;31.27;;;;;;;5.60;100.00;103555.41;5209297;28;20041;-56
2022/01/22 12:27:50;;;;;;;35.63;32.03;;;;;;;5.60;100.00;103560.75;5209328;28;20317;-57
2022/01/22 12:30:51;;;;;;;34.65;31.25;;;;;;;5.63;100.00;103561.28;5209444;28;20123;-61
2022/01/22 12:33:28;;;;;;;34.47;30.90;;;;;;;5.63;100.00;103549.72;5196821;28;20420;-56
2022/01/22 12:36:23;;;;;;;34.33;30.92;;;;;;;5.64;100.00;103552.25;5209250;28;20136;-57
2022/01/22 12:39:10;;;;;;;32.30;29.38;;;;;;;5.65;100.00;103564.66;5242798;28;20481;-57
2022/01/22 12:41:50;;;;;;;34.40;30.98;;;;;;;5.65;100.00;103563.81;5209531;28;20051;-58
2022/01/22 12:46:58;;;;;;;32.40;29.25;;;;;;;5.71;100.00;103579.28;5227655;28;19951;-58
2022/01/22 12:49:29;;;;;;;33.40;30.02;;;;;;;5.67;100.00;103576.06;5242452;28;20416;-58
2022/01/22 12:52:04;;;;;;;32.95;29.90;;;;;;;5.69;100.00;103578.59;5208999;28;20083;-59
2022/01/22 12:54:39;;;;;;;33.17;29.98;;;;;;;5.73;100.00;103580.81;5242058;28;20033;-59
2022/01/22 12:57:12;;;;;;;36.72;32.00;;;;;;;5.77;100.00;103586.69;5241883;28;20043;-57
2022/01/22 13:02:42;;;;;;;35.03;31.88;;;;;;;5.72;100.00;103584.47;5226964;28;20389;-56
2022/01/22 13:05:15;;;;;;;33.03;29.85;;;;;;;5.72;100.00;103581.81;5208774;28;20520;-61
2022/01/22 13:07:53;;;;;;;31.52;28.92;;;;;;;5.75;100.00;103570.78;5242084;28;20021;-56
2022/01/22 13:10:32;;;;;;;32.90;29.73;;;;;;;5.81;100.00;103569.28;5208894;28;20040;-56
2022/01/22 13:13:04;;;;;;;35.30;31.73;;;;;;;5.81;100.00;103571.09;5208427;28;20039;-58
2022/01/22 13:15:36;;;;;;;34.13;30.92;;;;;;;5.79;100.00;103576.63;5241634;28;20354;-56
2022/01/22 13:18:07;;;;;;;32.80;29.70;;;;;;;5.64;100.00;103549.56;5208710;28;20037;-56
2022/01/22 13:20:37;;;;;;;35.83;32.15;;;;;;;5.82;100.00;103562.91;5208312;28;20129;-60
2022/01/22 13:23:19;;;;;;;37.05;33.45;;;;;;;5.81;100.00;103563.91;5241883;28;20127;-59
2022/01/22 13:25:51;;;;;;;33.78;30.17;;;;;;;5.72;100.00;103557.69;5242237;28;20029;-62